sensor_id;sensor_type;location;lat;lon;timestamp;pressure;altitude;pressure_sealevel;temperature;humidity
706;BME280;21234;48.690;9.016;2023-02-14T00:01:37;97847.38;;;0.13;100.00
706;BME280;21234;48.690;9.016;2023-02-14T00:04:04;97840.31;;;0.22;100.00
706;BME280;21234;48.690;9.016;2023-02-14T00:06:31;97838.19;;;0.25;100.00
706;BME280;21234;48.690;9.016;2023-02-14T00:09:01;97843.84;;;0.22;100.00
706;BME280;21234;48.690;9.016;2023-02-14T00:11:28;97850.56;;;0.26;100.00
706;BME280;21234;48.690;9.016;2023-02-14T00:13:56;97853.53;;;0.23;100.00
706;BME280;21234;48.690;9.016;2023-02-14T00:16:41;97855.38;;;0.23;100.00
706;BME280;21234;48.690;9.016;2023-02-14T00:19:09;97851.16;;;0.20;100.00
706;BME280;21234;48.690;9.016;2023-02-14T00:21:37;97846.66;;;0.21;100.00
706;BME280;21234;48.690;9.016;2023-02-14T00:24:08;97840.16;;;0.23;100.00
706;BME280;21234;48.690;9.016;2023-02-14T00:26:35;97838.50;;;0.22;100.00
706;BME280;21234;48.690;9.016;2023-02-14T00:29:03;97828.34;;;0.26;100.00
706;BME280;21234;48.690;9.016;2023-02-14T00:31:30;97833.75;;;0.34;100.00
706;BME280;21234;48.690;9.016;2023-02-14T00:33:56;97832.06;;;0.33;100.00
706;BME280;21234;48.690;9.016;2023-02-14T00:36:23;97835.38;;;0.27;100.00
706;BME280;21234;48.690;9.016;2023-02-14T00:38:50;97828.75;;;0.31;100.00
706;BME280;21234;48.690;9.016;2023-02-14T00:41:18;97827.06;;;0.30;100.00
706;BME280;21234;48.690;9.016;2023-02-14T00:43:48;97828.03;;;0.29;100.00
706;BME280;21234;48.690;9.016;2023-02-14T00:46:16;97825.91;;;0.32;100.00
706;BME280;21234;48.690;9.016;2023-02-14T00:48:43;97826.84;;;0.41;100.00
706;BME280;21234;48.690;9.016;2023-02-14T00:51:10;97826.69;;;0.43;100.00
706;BME280;21234;48.690;9.016;2023-02-14T00:53:37;97834.16;;;0.39;100.00
706;BME280;21234;48.690;9.016;2023-02-14T00:56:04;97834.16;;;0.39;100.00
706;BME280;21234;48.690;9.016;2023-02-14T00:58:33;97833.19;;;0.40;100.00
706;BME280;21234;48.690;9.016;2023-02-14T01:01:00;97836.41;;;0.44;100.00
706;BME280;21234;48.690;9.016;2023-02-14T01:03:27;97839.03;;;0.53;100.00
706;BME280;21234;48.690;9.016;2023-02-14T01:05:54;97839.88;;;0.54;100.00
706;BME280;21234;48.690;9.016;2023-02-14T01:08:20;97835.81;;;0.50;100.00
706;BME280;21234;48.690;9.016;2023-02-14T01:10:47;97835.41;;;0.45;100.00
706;BME280;21234;48.690;9.016;2023-02-14T01:13:14;97844.72;;;0.41;100.00
706;BME280;21234;48.690;9.016;2023-02-14T01:15:44;97844.16;;;0.37;100.00
706;BME280;21234;48.690;9.016;2023-02-14T01:18:12;97847.69;;;0.38;100.00
706;BME280;21234;48.690;9.016;2023-02-14T01:20:39;97845.78;;;0.30;100.00
706;BME280;21234;48.690;9.016;2023-02-14T01:23:06;97847.69;;;0.38;100.00
706;BME280;21234;48.690;9.016;2023-02-14T01:25:35;97850.66;;;0.34;100.00
706;BME280;21234;48.690;9.016;2023-02-14T01:28:02;97840.09;;;0.33;100.00
706;BME280;21234;48.690;9.016;2023-02-14T01:30:29;97850.00;;;0.32;100.00
706;BME280;21234;48.690;9.016;2023-02-14T01:32:57;97850.66;;;0.34;100.00
706;BME280;21234;48.690;9.016;2023-02-14T01:35:23;97844.47;;;0.34;100.00
706;BME280;21234;48.690;9.016;2023-02-14T01:37:50;97836.44;;;0.34;100.00
706;BME280;21234;48.690;9.016;2023-02-14T01:40:17;97837.75;;;0.30;100.00
706;BME280;21234;48.690;9.016;2023-02-14T01:42:44;97841.03;;;0.14;100.00
706;BME280;21234;48.690;9.016;2023-02-14T01:45:16;97844.00;;;0.11;100.00
706;BME280;21234;48.690;9.016;2023-02-14T01:47:45;97834.34;;;0.00;100.00
706;BME280;21234;48.690;9.016;2023-02-14T01:50:18;97836.50;;;-0.13;100.00
706;BME280;21234;48.690;9.016;2023-02-14T01:52:49;97834.81;;;-0.14;100.00
706;BME280;21234;48.690;9.016;2023-02-14T01:55:21;97842.56;;;-0.11;100.00
706;BME280;21234;48.690;9.016;2023-02-14T01:57:51;97840.00;;;-0.03;100.00
706;BME280;21234;48.690;9.016;2023-02-14T02:00:20;97841.22;;;0.03;100.00
706;BME280;21234;48.690;9.016;2023-02-14T02:03:06;97840.16;;;-0.04;100.00
706;BME280;21234;48.690;9.016;2023-02-14T02:05:37;97840.38;;;0.03;100.00
706;BME280;21234;48.690;9.016;2023-02-14T02:08:05;97836.44;;;0.07;100.00
706;BME280;21234;48.690;9.016;2023-02-14T02:10:35;97832.63;;;0.09;100.00
706;BME280;21234;48.690;9.016;2023-02-14T02:13:05;97841.91;;;0.05;100.00
706;BME280;21234;48.690;9.016;2023-02-14T02:15:36;97838.41;;;0.05;100.00
706;BME280;21234;48.690;9.016;2023-02-14T02:18:09;97845.19;;;-0.01;100.00
706;BME280;21234;48.690;9.016;2023-02-14T02:24:24;97831.16;;;-0.13;100.00
706;BME280;21234;48.690;9.016;2023-02-14T02:27:19;97830.34;;;-0.23;100.00
706;BME280;21234;48.690;9.016;2023-02-14T02:39:09;97815.53;;;-0.08;100.00
706;BME280;21234;48.690;9.016;2023-02-14T02:41:47;97825.94;;;-0.05;100.00
706;BME280;21234;48.690;9.016;2023-02-14T02:44:25;97823.13;;;-0.13;100.00
706;BME280;21234;48.690;9.016;2023-02-14T02:47:01;97823.28;;;-0.14;100.00
706;BME280;21234;48.690;9.016;2023-02-14T02:49:40;97825.25;;;-0.16;100.00
706;BME280;21234;48.690;9.016;2023-02-14T02:52:36;97824.16;;;-0.23;100.00
706;BME280;21234;48.690;9.016;2023-02-14T02:55:28;97817.66;;;-0.21;100.00
706;BME280;21234;48.690;9.016;2023-02-14T02:58:19;97821.75;;;-0.17;100.00
706;BME280;21234;48.690;9.016;2023-02-14T03:00:47;97823.84;;;-0.11;100.00
706;BME280;21234;48.690;9.016;2023-02-14T03:03:17;97810.59;;;-0.03;100.00
706;BME280;21234;48.690;9.016;2023-02-14T03:06:16;97818.84;;;0.04;100.00
706;BME280;21234;48.690;9.016;2023-02-14T03:08:44;97820.94;;;0.10;100.00
706;BME280;21234;48.690;9.016;2023-02-14T03:11:12;97818.94;;;0.12;100.00
706;BME280;21234;48.690;9.016;2023-02-14T03:13:56;97812.34;;;0.07;100.00
706;BME280;21234;48.690;9.016;2023-02-14T03:16:34;97815.44;;;0.12;100.00
706;BME280;21234;48.690;9.016;2023-02-14T03:19:16;97818.81;;;0.14;100.00
706;BME280;21234;48.690;9.016;2023-02-14T03:21:51;97824.72;;;0.17;100.00
706;BME280;21234;48.690;9.016;2023-02-14T03:24:24;97818.06;;;0.21;100.00
706;BME280;21234;48.690;9.016;2023-02-14T03:27:00;97817.94;;;0.23;100.00
706;BME280;21234;48.690;9.016;2023-02-14T03:29:38;97811.00;;;0.30;100.00
706;BME280;21234;48.690;9.016;2023-02-14T03:32:12;97813.06;;;0.36;100.00
706;BME280;21234;48.690;9.016;2023-02-14T03:34:47;97815.59;;;0.38;100.00
706;BME280;21234;48.690;9.016;2023-02-14T03:37:22;97817.56;;;0.36;100.00
706;BME280;21234;48.690;9.016;2023-02-14T03:39:57;97827.81;;;0.40;100.00
706;BME280;21234;48.690;9.016;2023-02-14T03:42:27;97818.25;;;0.38;100.00
706;BME280;21234;48.690;9.016;2023-02-14T03:44:56;97827.19;;;0.28;100.00
706;BME280;21234;48.690;9.016;2023-02-14T03:47:29;97829.03;;;0.28;100.00
706;BME280;21234;48.690;9.016;2023-02-14T03:50:02;97829.75;;;0.20;100.00
706;BME280;21234;48.690;9.016;2023-02-14T03:52:31;97823.91;;;0.07;100.00
706;BME280;21234;48.690;9.016;2023-02-14T03:55:03;97827.81;;;0.13;100.00
706;BME280;21234;48.690;9.016;2023-02-14T03:57:34;97819.66;;;0.14;100.00
706;BME280;21234;48.690;9.016;2023-02-14T04:00:03;97816.47;;;0.01;100.00
706;BME280;21234;48.690;9.016;2023-02-14T04:02:33;97818.16;;;0.02;100.00
706;BME280;21234;48.690;9.016;2023-02-14T04:05:05;97816.81;;;-0.12;100.00
706;BME280;21234;48.690;9.016;2023-02-14T04:07:43;97820.19;;;-0.19;100.00
706;BME280;21234;48.690;9.016;2023-02-14T04:10:11;97813.78;;;-0.36;100.00
706;BME280;21234;48.690;9.016;2023-02-14T04:12:38;97812.13;;;-0.47;100.00
706;BME280;21234;48.690;9.016;2023-02-14T04:15:05;97813.13;;;-0.57;100.00
706;BME280;21234;48.690;9.016;2023-02-14T04:17:32;97814.00;;;-0.66;100.00
706;BME280;21234;48.690;9.016;2023-02-14T04:20:16;97804.81;;;-0.54;100.00
706;BME280;21234;48.690;9.016;2023-02-14T04:22:43;97808.75;;;-0.49;99.29
706;BME280;21234;48.690;9.016;2023-02-14T04:25:12;97809.72;;;-0.50;99.23
706;BME280;21234;48.690;9.016;2023-02-14T04:27:38;97813.28;;;-0.69;99.16
706;BME280;21234;48.690;9.016;2023-02-14T04:30:07;97807.94;;;-0.78;99.69
706;BME280;21234;48.690;9.016;2023-02-14T04:32:34;97815.97;;;-0.69;99.72
706;BME280;21234;48.690;9.016;2023-02-14T04:35:01;97811.47;;;-0.68;98.69
706;BME280;21234;48.690;9.016;2023-02-14T04:37:28;97812.16;;;-0.76;98.80
706;BME280;21234;48.690;9.016;2023-02-14T04:39:55;97805.28;;;-0.69;98.97
706;BME280;21234;48.690;9.016;2023-02-14T04:42:23;97811.44;;;-0.58;98.63
706;BME280;21234;48.690;9.016;2023-02-14T04:44:49;97807.78;;;-0.57;98.54
706;BME280;21234;48.690;9.016;2023-02-14T04:47:16;97806.50;;;-0.63;99.09
706;BME280;21234;48.690;9.016;2023-02-14T04:49:43;97807.25;;;-0.71;99.43
706;BME280;21234;48.690;9.016;2023-02-14T04:52:09;97797.34;;;-0.51;98.83
706;BME280;21234;48.690;9.016;2023-02-14T04:54:38;97802.00;;;-0.53;98.10
706;BME280;21234;48.690;9.016;2023-02-14T04:57:05;97802.00;;;-0.53;97.14
706;BME280;21234;48.690;9.016;2023-02-14T04:59:33;97795.53;;;-0.50;97.69
706;BME280;21234;48.690;9.016;2023-02-14T05:01:59;97805.38;;;-0.51;97.61
706;BME280;21234;48.690;9.016;2023-02-14T05:04:26;97800.50;;;-0.65;98.05
706;BME280;21234;48.690;9.016;2023-02-14T05:06:53;97794.75;;;-0.70;97.21
706;BME280;21234;48.690;9.016;2023-02-14T05:09:20;97796.72;;;-0.82;97.46
706;BME280;21234;48.690;9.016;2023-02-14T05:11:46;97800.22;;;-0.81;98.02
706;BME280;21234;48.690;9.016;2023-02-14T05:14:13;97797.97;;;-0.66;97.83
706;BME280;21234;48.690;9.016;2023-02-14T05:16:41;97802.19;;;-0.74;98.25
706;BME280;21234;48.690;9.016;2023-02-14T05:19:08;97798.81;;;-0.76;97.63
706;BME280;21234;48.690;9.016;2023-02-14T05:21:34;97800.50;;;-0.75;97.76
706;BME280;21234;48.690;9.016;2023-02-14T05:24:02;97802.16;;;-0.64;97.49
706;BME280;21234;48.690;9.016;2023-02-14T05:26:30;97806.50;;;-0.53;96.76
706;BME280;21234;48.690;9.016;2023-02-14T05:28:56;97806.09;;;-0.58;97.34
706;BME280;21234;48.690;9.016;2023-02-14T05:31:23;97809.91;;;-0.71;99.72
706;BME280;21234;48.690;9.016;2023-02-14T05:33:51;97805.09;;;-0.57;100.00
706;BME280;21234;48.690;9.016;2023-02-14T05:36:18;97802.00;;;-0.53;100.00
706;BME280;21234;48.690;9.016;2023-02-14T05:38:45;97796.22;;;-0.48;100.00
706;BME280;21234;48.690;9.016;2023-02-14T05:41:11;97801.00;;;-0.42;100.00
706;BME280;21234;48.690;9.016;2023-02-14T05:43:38;97804.81;;;-0.45;100.00
706;BME280;21234;48.690;9.016;2023-02-14T05:46:05;97805.63;;;-0.35;100.00
706;BME280;21234;48.690;9.016;2023-02-14T05:48:32;97813.88;;;-0.28;100.00
706;BME280;21234;48.690;9.016;2023-02-14T05:51:04;97811.34;;;-0.29;100.00
706;BME280;21234;48.690;9.016;2023-02-14T05:53:30;97810.94;;;-0.25;100.00
706;BME280;21234;48.690;9.016;2023-02-14T05:55:57;97813.88;;;-0.28;100.00
706;BME280;21234;48.690;9.016;2023-02-14T05:58:24;97816.84;;;-0.31;99.72
706;BME280;21234;48.690;9.016;2023-02-14T06:00:51;97819.53;;;-0.31;99.86
706;BME280;21234;48.690;9.016;2023-02-14T06:03:17;97817.13;;;-0.24;98.98
706;BME280;21234;48.690;9.016;2023-02-14T06:05:44;97821.91;;;-0.28;97.99
706;BME280;21234;48.690;9.016;2023-02-14T06:08:12;97813.78;;;-0.36;98.15
706;BME280;21234;48.690;9.016;2023-02-14T06:10:39;97819.53;;;-0.31;97.52
706;BME280;21234;48.690;9.016;2023-02-14T06:13:06;97805.63;;;-0.35;98.43
706;BME280;21234;48.690;9.016;2023-02-14T06:15:33;97814.63;;;-0.36;97.75
706;BME280;21234;48.690;9.016;2023-02-14T06:18:00;97812.38;;;-0.40;98.02
706;BME280;21234;48.690;9.016;2023-02-14T06:20:27;97811.97;;;-0.36;98.03
706;BME280;21234;48.690;9.016;2023-02-14T06:22:54;97824.22;;;-0.43;96.79
706;BME280;21234;48.690;9.016;2023-02-14T06:25:23;97820.97;;;-0.46;96.71
706;BME280;21234;48.690;9.016;2023-02-14T06:27:50;97826.72;;;-0.41;96.58
706;BME280;21234;48.690;9.016;2023-02-14T06:30:17;97826.31;;;-0.37;96.27
706;BME280;21234;48.690;9.016;2023-02-14T06:32:44;97831.09;;;-0.40;96.80
706;BME280;21234;48.690;9.016;2023-02-14T06:35:11;97839.41;;;-0.43;97.52
706;BME280;21234;48.690;9.016;2023-02-14T06:37:38;97839.53;;;-0.45;98.03
706;BME280;21234;48.690;9.016;2023-02-14T06:40:07;97832.22;;;-0.52;98.50
706;BME280;21234;48.690;9.016;2023-02-14T06:42:35;97834.38;;;-0.65;98.58
706;BME280;21234;48.690;9.016;2023-02-14T06:45:03;97837.16;;;-0.57;97.88
706;BME280;21234;48.690;9.016;2023-02-14T06:47:29;97835.75;;;-0.42;98.65
706;BME280;21234;48.690;9.016;2023-02-14T06:49:56;97828.53;;;-0.32;98.63
706;BME280;21234;48.690;9.016;2023-02-14T06:52:24;97830.06;;;-0.29;98.98
706;BME280;21234;48.690;9.016;2023-02-14T06:54:51;97835.03;;;-0.35;98.54
706;BME280;21234;48.690;9.016;2023-02-14T06:57:18;97831.47;;;-0.25;98.62
706;BME280;21234;48.690;9.016;2023-02-14T06:59:46;97833.44;;;-0.27;98.94
706;BME280;21234;48.690;9.016;2023-02-14T07:02:12;97828.59;;;-0.05;99.10
706;BME280;21234;48.690;9.016;2023-02-14T07:04:39;97830.38;;;0.05;98.66
706;BME280;21234;48.690;9.016;2023-02-14T07:07:06;97829.16;;;-0.01;98.82
706;BME280;21234;48.690;9.016;2023-02-14T07:09:32;97834.31;;;0.10;97.46
706;BME280;21234;48.690;9.016;2023-02-14T07:11:59;97826.53;;;0.17;96.37
706;BME280;21234;48.690;9.016;2023-02-14T07:14:26;97819.50;;;0.16;95.46
706;BME280;21234;48.690;9.016;2023-02-14T07:16:54;97826.41;;;0.18;96.15
706;BME280;21234;48.690;9.016;2023-02-14T07:19:21;97822.28;;;0.24;95.89
706;BME280;21234;48.690;9.016;2023-02-14T07:21:47;97824.25;;;0.49;95.06
706;BME280;21234;48.690;9.016;2023-02-14T07:24:14;97811.28;;;0.72;92.79
706;BME280;21234;48.690;9.016;2023-02-14T07:26:41;97820.50;;;1.05;92.27
706;BME280;21234;48.690;9.016;2023-02-14T07:29:07;97816.03;;;1.49;91.40
706;BME280;21234;48.690;9.016;2023-02-14T07:31:34;97817.91;;;2.09;88.41
706;BME280;21234;48.690;9.016;2023-02-14T07:34:02;97804.59;;;2.33;86.90
706;BME280;21234;48.690;9.016;2023-02-14T07:36:29;97814.94;;;2.62;84.34
706;BME280;21234;48.690;9.016;2023-02-14T07:38:56;97814.63;;;2.65;82.69
706;BME280;21234;48.690;9.016;2023-02-14T07:41:23;97811.28;;;2.71;81.22
706;BME280;21234;48.690;9.016;2023-02-14T07:43:49;97816.00;;;2.27;82.48
706;BME280;21234;48.690;9.016;2023-02-14T07:46:16;97815.63;;;1.88;84.82
706;BME280;21234;48.690;9.016;2023-02-14T07:48:43;97817.13;;;1.64;85.56
706;BME280;21234;48.690;9.016;2023-02-14T07:51:11;97821.66;;;1.20;87.92
706;BME280;21234;48.690;9.016;2023-02-14T07:53:37;97819.81;;;1.03;88.24
706;BME280;21234;48.690;9.016;2023-02-14T07:56:04;97814.91;;;0.81;90.04
706;BME280;21234;48.690;9.016;2023-02-14T07:58:31;97813.66;;;0.75;90.40
706;BME280;21234;48.690;9.016;2023-02-14T08:00:58;97822.84;;;0.73;92.00
706;BME280;21234;48.690;9.016;2023-02-14T08:03:25;97822.09;;;0.62;92.79
706;BME280;21234;48.690;9.016;2023-02-14T08:05:51;97820.03;;;0.74;93.54
706;BME280;21234;48.690;9.016;2023-02-14T08:08:24;97816.28;;;1.20;92.09
706;BME280;21234;48.690;9.016;2023-02-14T08:10:51;97818.59;;;1.15;92.80
706;BME280;21234;48.690;9.016;2023-02-14T08:13:18;97814.03;;;1.33;93.22
706;BME280;21234;48.690;9.016;2023-02-14T08:15:45;97811.03;;;1.54;92.44
706;BME280;21234;48.690;9.016;2023-02-14T08:18:31;97802.53;;;1.59;93.39
706;BME280;21234;48.690;9.016;2023-02-14T08:20:58;97801.81;;;2.09;92.00
706;BME280;21234;48.690;9.016;2023-02-14T08:23:26;97806.56;;;2.65;89.80
706;BME280;21234;48.690;9.016;2023-02-14T08:25:53;97797.09;;;3.84;84.93
706;BME280;21234;48.690;9.016;2023-02-14T08:28:20;97792.19;;;5.05;76.38
706;BME280;21234;48.690;9.016;2023-02-14T08:30:47;97790.53;;;5.04;74.45
706;BME280;21234;48.690;9.016;2023-02-14T08:33:14;97794.59;;;4.69;75.55
706;BME280;21234;48.690;9.016;2023-02-14T08:35:41;97795.94;;;4.73;75.57
706;BME280;21234;48.690;9.016;2023-02-14T08:38:07;97797.00;;;4.17;77.38
706;BME280;21234;48.690;9.016;2023-02-14T08:40:36;97797.59;;;3.63;80.48
706;BME280;21234;48.690;9.016;2023-02-14T08:43:03;97800.63;;;3.28;84.08
706;BME280;21234;48.690;9.016;2023-02-14T08:45:29;97797.09;;;3.11;84.17
706;BME280;21234;48.690;9.016;2023-02-14T08:48:00;97800.09;;;3.00;85.60
706;BME280;21234;48.690;9.016;2023-02-14T08:50:27;97799.09;;;2.85;86.47
706;BME280;21234;48.690;9.016;2023-02-14T08:52:54;97803.09;;;2.81;87.98
706;BME280;21234;48.690;9.016;2023-02-14T08:55:20;97801.03;;;2.66;88.18
706;BME280;21234;48.690;9.016;2023-02-14T08:57:48;97802.63;;;2.85;88.44
706;BME280;21234;48.690;9.016;2023-02-14T09:00:15;97800.75;;;2.94;88.95
706;BME280;21234;48.690;9.016;2023-02-14T09:02:42;97791.72;;;3.03;88.80
706;BME280;21234;48.690;9.016;2023-02-14T09:05:09;97796.28;;;3.19;88.87
706;BME280;21234;48.690;9.016;2023-02-14T09:07:35;97792.41;;;3.37;87.89
706;BME280;21234;48.690;9.016;2023-02-14T09:10:02;97790.22;;;3.41;86.47
706;BME280;21234;48.690;9.016;2023-02-14T09:12:29;97792.09;;;3.57;86.46
706;BME280;21234;48.690;9.016;2023-02-14T09:14:57;97789.72;;;3.54;86.29
706;BME280;21234;48.690;9.016;2023-02-14T09:17:24;97798.31;;;3.57;85.93
706;BME280;21234;48.690;9.016;2023-02-14T09:19:50;97783.66;;;3.68;86.87
706;BME280;21234;48.690;9.016;2023-02-14T09:22:17;97782.63;;;3.69;85.73
706;BME280;21234;48.690;9.016;2023-02-14T09:24:44;97780.78;;;3.78;85.50
706;BME280;21234;48.690;9.016;2023-02-14T09:27:11;97781.47;;;3.71;85.32
706;BME280;21234;48.690;9.016;2023-02-14T09:29:37;97781.47;;;3.71;85.36
706;BME280;21234;48.690;9.016;2023-02-14T09:32:06;97788.31;;;3.90;85.77
706;BME280;21234;48.690;9.016;2023-02-14T09:34:33;97782.56;;;4.01;84.69
706;BME280;21234;48.690;9.016;2023-02-14T09:37:00;97783.56;;;4.17;83.46
706;BME280;21234;48.690;9.016;2023-02-14T09:39:44;97784.25;;;4.11;83.89
706;BME280;21234;48.690;9.016;2023-02-14T09:45:26;97773.81;;;4.55;81.47
706;BME280;21234;48.690;9.016;2023-02-14T09:47:57;97772.88;;;4.70;79.93
706;BME280;21234;48.690;9.016;2023-02-14T09:50:28;97764.47;;;4.65;80.38
706;BME280;21234;48.690;9.016;2023-02-14T09:53:02;97763.63;;;4.96;80.22
706;BME280;21234;48.690;9.016;2023-02-14T09:55:37;97766.22;;;5.12;78.54
706;BME280;21234;48.690;9.016;2023-02-14T09:58:07;97759.34;;;5.24;78.45
706;BME280;21234;48.690;9.016;2023-02-14T10:00:41;97758.59;;;5.38;77.00
706;BME280;21234;48.690;9.016;2023-02-14T10:06:07;97753.69;;;5.57;75.07
706;BME280;21234;48.690;9.016;2023-02-14T10:08:45;97751.44;;;5.46;74.89
706;BME280;21234;48.690;9.016;2023-02-14T10:11:17;97762.66;;;5.72;75.00
706;BME280;21234;48.690;9.016;2023-02-14T10:13:49;97747.16;;;5.89;74.84
706;BME280;21234;48.690;9.016;2023-02-14T10:16:21;97753.56;;;5.88;73.65
706;BME280;21234;48.690;9.016;2023-02-14T10:18:56;97749.59;;;5.98;72.87
706;BME280;21234;48.690;9.016;2023-02-14T10:21:30;97739.94;;;6.04;73.04
706;BME280;21234;48.690;9.016;2023-02-14T10:24:01;97748.22;;;6.17;72.74
706;BME280;21234;48.690;9.016;2023-02-14T10:26:34;97745.13;;;6.20;72.60
706;BME280;21234;48.690;9.016;2023-02-14T10:29:05;97738.31;;;6.39;71.73
706;BME280;21234;48.690;9.016;2023-02-14T10:31:38;97742.53;;;6.27;70.90
706;BME280;21234;48.690;9.016;2023-02-14T10:34:14;97737.50;;;6.38;71.07
706;BME280;21234;48.690;9.016;2023-02-14T10:37:04;97737.13;;;6.78;71.63
706;BME280;21234;48.690;9.016;2023-02-14T10:39:57;97732.31;;;6.94;69.68
706;BME280;21234;48.690;9.016;2023-02-14T10:42:33;97733.50;;;7.06;69.63
706;BME280;21234;48.690;9.016;2023-02-14T10:45:12;97731.47;;;6.94;67.69
706;BME280;21234;48.690;9.016;2023-02-14T10:47:46;97729.38;;;7.11;68.78
706;BME280;21234;48.690;9.016;2023-02-14T10:50:23;97730.97;;;7.26;68.57
706;BME280;21234;48.690;9.016;2023-02-14T10:52:57;97716.16;;;7.44;67.24
706;BME280;21234;48.690;9.016;2023-02-14T10:55:34;97722.22;;;7.46;67.15
706;BME280;21234;48.690;9.016;2023-02-14T10:58:05;97720.13;;;7.48;67.11
706;BME280;21234;48.690;9.016;2023-02-14T11:00:37;97715.50;;;7.41;67.42
706;BME280;21234;48.690;9.016;2023-02-14T11:03:07;97708.00;;;7.65;67.49
706;BME280;21234;48.690;9.016;2023-02-14T11:05:38;97712.03;;;7.75;67.13
706;BME280;21234;48.690;9.016;2023-02-14T11:08:14;97703.88;;;7.69;66.48
706;BME280;21234;48.690;9.016;2023-02-14T11:10:41;97698.72;;;7.81;67.77
706;BME280;21234;48.690;9.016;2023-02-14T11:13:26;97694.88;;;7.96;65.03
706;BME280;21234;48.690;9.016;2023-02-14T11:15:53;97699.75;;;8.07;65.15
706;BME280;21234;48.690;9.016;2023-02-14T11:18:21;97694.47;;;7.99;64.18
706;BME280;21234;48.690;9.016;2023-02-14T11:21:01;97692.00;;;8.04;64.37
706;BME280;21234;48.690;9.016;2023-02-14T11:23:32;97681.72;;;8.28;64.50
706;BME280;21234;48.690;9.016;2023-02-14T11:25:59;97681.44;;;8.16;63.92
706;BME280;21234;48.690;9.016;2023-02-14T11:28:26;97684.38;;;8.21;63.56
706;BME280;21234;48.690;9.016;2023-02-14T11:30:53;97684.78;;;8.18;63.20
706;BME280;21234;48.690;9.016;2023-02-14T11:33:36;97679.44;;;8.31;63.74
706;BME280;21234;48.690;9.016;2023-02-14T11:36:09;97670.78;;;8.43;63.63
706;BME280;21234;48.690;9.016;2023-02-14T11:38:39;97662.84;;;8.48;62.99
706;BME280;21234;48.690;9.016;2023-02-14T11:41:08;97654.78;;;8.67;61.74
706;BME280;21234;48.690;9.016;2023-02-14T11:43:37;97654.38;;;8.70;59.71
706;BME280;21234;48.690;9.016;2023-02-14T11:46:12;97647.91;;;8.78;59.99
706;BME280;21234;48.690;9.016;2023-02-14T11:48:54;97646.28;;;8.77;59.18
706;BME280;21234;48.690;9.016;2023-02-14T11:51:27;97639.19;;;8.89;60.88
706;BME280;21234;48.690;9.016;2023-02-14T11:53:56;97642.50;;;8.85;60.66
706;BME280;21234;48.690;9.016;2023-02-14T11:56:43;97637.72;;;8.87;59.73
706;BME280;21234;48.690;9.016;2023-02-14T11:59:13;97635.03;;;9.00;59.45
706;BME280;21234;48.690;9.016;2023-02-14T12:01:48;97635.03;;;9.13;59.96
706;BME280;21234;48.690;9.016;2023-02-14T12:04:19;97631.91;;;9.16;60.04
706;BME280;21234;48.690;9.016;2023-02-14T12:06:49;97633.38;;;9.25;59.21
706;BME280;21234;48.690;9.016;2023-02-14T12:09:25;97634.00;;;9.40;59.87
706;BME280;21234;48.690;9.016;2023-02-14T12:11:54;97632.34;;;9.39;58.33
706;BME280;21234;48.690;9.016;2023-02-14T12:14:23;97630.00;;;9.56;60.05
706;BME280;21234;48.690;9.016;2023-02-14T12:16:55;97626.66;;;9.61;58.04
706;BME280;21234;48.690;9.016;2023-02-14T12:19:31;97626.25;;;9.70;58.93
706;BME280;21234;48.690;9.016;2023-02-14T12:22:03;97621.38;;;9.86;60.77
706;BME280;21234;48.690;9.016;2023-02-14T12:24:32;97617.63;;;9.93;58.94
706;BME280;21234;48.690;9.016;2023-02-14T12:27:16;97618.41;;;10.07;58.12
706;BME280;21234;48.690;9.016;2023-02-14T12:29:47;97605.81;;;10.26;58.50
706;BME280;21234;48.690;9.016;2023-02-14T12:32:20;97604.53;;;10.35;57.29
706;BME280;21234;48.690;9.016;2023-02-14T12:34:47;97601.16;;;10.39;56.49
706;BME280;21234;48.690;9.016;2023-02-14T12:37:30;97599.13;;;10.28;55.56
706;BME280;21234;48.690;9.016;2023-02-14T12:40:10;97602.66;;;10.35;56.25
706;BME280;21234;48.690;9.016;2023-02-14T12:43:11;97597.25;;;10.29;55.99
706;BME280;21234;48.690;9.016;2023-02-14T12:46:02;97586.78;;;10.32;56.56
706;BME280;21234;48.690;9.016;2023-02-14T12:48:46;97586.28;;;10.42;55.35
706;BME280;21234;48.690;9.016;2023-02-14T12:51:23;97585.09;;;10.69;57.68
706;BME280;21234;48.690;9.016;2023-02-14T12:54:03;97585.59;;;10.85;56.99
706;BME280;21234;48.690;9.016;2023-02-14T12:56:43;97585.75;;;10.96;56.66
706;BME280;21234;48.690;9.016;2023-02-14T12:59:21;97587.81;;;11.01;54.64
706;BME280;21234;48.690;9.016;2023-02-14T13:02:32;97581.97;;;11.22;53.29
706;BME280;21234;48.690;9.016;2023-02-14T13:05:05;97571.03;;;11.29;53.12
706;BME280;21234;48.690;9.016;2023-02-14T13:07:52;97567.03;;;11.31;53.29
706;BME280;21234;48.690;9.016;2023-02-14T13:10:34;97574.06;;;11.39;53.18
706;BME280;21234;48.690;9.016;2023-02-14T13:13:10;97571.13;;;11.40;52.56
706;BME280;21234;48.690;9.016;2023-02-14T13:15:47;97563.34;;;11.44;52.66
706;BME280;21234;48.690;9.016;2023-02-14T13:18:22;97556.88;;;11.63;51.56
706;BME280;21234;48.690;9.016;2023-02-14T13:20:54;97553.88;;;11.90;52.88
706;BME280;21234;48.690;9.016;2023-02-14T13:23:27;97551.09;;;11.96;53.98
706;BME280;21234;48.690;9.016;2023-02-14T13:25:58;97547.34;;;12.09;52.45
706;BME280;21234;48.690;9.016;2023-02-14T13:28:27;97545.16;;;12.18;52.76
706;BME280;21234;48.690;9.016;2023-02-14T13:30:55;97545.38;;;12.34;52.18
706;BME280;21234;48.690;9.016;2023-02-14T13:33:27;97541.16;;;12.50;50.82
706;BME280;21234;48.690;9.016;2023-02-14T13:35:59;97546.06;;;12.71;49.64
706;BME280;21234;48.690;9.016;2023-02-14T13:38:27;97545.91;;;12.96;49.32
706;BME280;21234;48.690;9.016;2023-02-14T13:40:58;97542.47;;;13.12;48.41
706;BME280;21234;48.690;9.016;2023-02-14T13:46:45;97529.53;;;14.30;47.24
706;BME280;21234;48.690;9.016;2023-02-14T13:49:28;97532.09;;;14.08;48.59
706;BME280;21234;48.690;9.016;2023-02-14T13:51:57;97532.03;;;14.31;47.66
706;BME280;21234;48.690;9.016;2023-02-14T13:54:33;97527.63;;;14.70;45.75
706;BME280;21234;48.690;9.016;2023-02-14T13:57:22;97525.41;;;14.27;46.39
706;BME280;21234;48.690;9.016;2023-02-14T14:00:21;97521.09;;;15.55;44.39
706;BME280;21234;48.690;9.016;2023-02-14T14:02:48;97522.53;;;17.63;39.52
706;BME280;21234;48.690;9.016;2023-02-14T14:05:46;97521.25;;;18.28;38.01
706;BME280;21234;48.690;9.016;2023-02-14T14:08:42;97522.28;;;19.96;35.31